createdAt,value
2018-07-22T00:02:21.595Z,12.20
2018-07-22T00:04:49.820Z,13.93
2018-07-22T00:07:18.064Z,12.73
2018-07-22T00:09:46.304Z,14.30
2018-07-22T00:12:14.556Z,13.80
2018-07-22T00:14:42.787Z,13.20
2018-07-22T00:17:11.048Z,13.57
2018-07-22T00:19:39.275Z,13.40
2018-07-22T00:22:07.520Z,13.03
2018-07-22T00:24:35.743Z,12.73
2018-07-22T00:27:03.989Z,12.77
2018-07-22T00:29:32.212Z,13.50
2018-07-22T00:32:00.468Z,13.67
2018-07-22T00:34:28.696Z,13.50
2018-07-22T00:36:56.944Z,13.47
2018-07-22T00:39:25.176Z,12.87
2018-07-22T00:41:53.415Z,13.27
2018-07-22T00:44:21.647Z,13.67
2018-07-22T00:46:49.899Z,13.37
2018-07-22T00:49:18.127Z,13.13
2018-07-22T00:51:46.367Z,13.17
2018-07-22T00:54:14.597Z,13.90
2018-07-22T00:56:42.836Z,14.13
2018-07-22T00:59:11.066Z,13.97
2018-07-22T01:01:39.319Z,14.30
2018-07-22T01:04:07.548Z,13.43
2018-07-22T01:06:35.793Z,14.37
2018-07-22T01:09:06.081Z,13.83
2018-07-22T01:11:34.336Z,14.13
2018-07-22T01:14:02.594Z,14.83
2018-07-22T01:16:30.841Z,13.60
2018-07-22T01:18:59.084Z,13.63
2018-07-22T01:21:27.333Z,13.50
2018-07-22T01:23:55.556Z,12.83
2018-07-22T01:26:23.801Z,14.73
2018-07-22T01:28:52.028Z,13.97
2018-07-22T01:31:20.260Z,13.77
2018-07-22T01:33:48.512Z,13.10
2018-07-22T01:36:16.751Z,14.80
2018-07-22T01:38:44.977Z,14.30
2018-07-22T01:41:13.220Z,14.37
2018-07-22T01:43:41.436Z,13.53
2018-07-22T01:46:09.676Z,13.77
2018-07-22T01:48:37.903Z,13.70
2018-07-22T01:51:06.147Z,14.33
2018-07-22T01:53:34.376Z,14.53
2018-07-22T01:56:02.600Z,14.07
2018-07-22T01:58:30.844Z,13.77
2018-07-22T02:00:59.076Z,14.77
2018-07-22T02:03:27.320Z,15.03
2018-07-22T02:05:55.556Z,13.93
2018-07-22T02:08:23.788Z,14.80
2018-07-22T02:10:52.016Z,14.43
2018-07-22T02:13:20.258Z,14.53
2018-07-22T02:15:48.492Z,14.50
2018-07-22T02:18:16.748Z,14.47
2018-07-22T02:20:44.977Z,13.73
2018-07-22T02:23:13.241Z,14.77
2018-07-22T02:25:41.471Z,13.93
2018-07-22T02:28:09.710Z,13.90
2018-07-22T02:30:37.936Z,14.00
2018-07-22T02:33:06.336Z,14.70
2018-07-22T02:35:34.567Z,15.27
2018-07-22T02:38:02.836Z,14.53
2018-07-22T02:40:31.060Z,14.20
2018-07-22T02:42:59.310Z,14.37
2018-07-22T02:45:27.535Z,14.03
2018-07-22T02:47:55.788Z,13.73
2018-07-22T02:50:24.005Z,13.13
2018-07-22T02:52:52.248Z,14.80
2018-07-22T02:55:20.468Z,14.00
2018-07-22T02:57:48.712Z,14.20
2018-07-22T03:00:16.935Z,14.57
2018-07-22T03:02:45.209Z,14.83
2018-07-22T03:05:13.434Z,14.37
2018-07-22T03:07:41.681Z,14.17
2018-07-22T03:10:09.913Z,13.93
2018-07-22T03:12:38.148Z,13.97
2018-07-22T03:15:06.404Z,14.23
2018-07-22T03:17:34.662Z,14.23
2018-07-22T03:20:02.896Z,14.17
2018-07-22T03:22:31.132Z,13.97
2018-07-22T03:24:59.389Z,13.20
2018-07-22T03:27:27.626Z,14.10
2018-07-22T03:29:55.844Z,13.67
2018-07-22T03:32:24.076Z,12.87
2018-07-22T03:34:52.292Z,14.10
2018-07-22T03:37:20.532Z,13.13
2018-07-22T03:39:48.755Z,13.37
2018-07-22T03:42:16.996Z,13.57
2018-07-22T03:44:45.212Z,13.30
2018-07-22T03:47:13.427Z,13.63
2018-07-22T03:49:41.666Z,13.63
2018-07-22T03:52:09.884Z,13.43
2018-07-22T03:54:38.151Z,12.53
2018-07-22T03:57:06.368Z,13.00
2018-07-22T03:59:34.708Z,13.70
2018-07-22T04:02:02.939Z,12.90
2018-07-22T04:04:31.257Z,13.23
2018-07-22T04:06:59.518Z,13.40
2018-07-22T04:09:27.739Z,12.87
2018-07-22T04:11:55.959Z,13.07
2018-07-22T04:14:24.195Z,13.40
2018-07-22T04:16:52.435Z,12.70
2018-07-22T04:19:20.676Z,13.13
2018-07-22T04:21:48.915Z,12.90
2018-07-22T04:24:17.156Z,12.50
2018-07-22T04:26:45.371Z,13.83
2018-07-22T04:29:13.607Z,13.67
2018-07-22T04:31:41.836Z,13.23
2018-07-22T04:34:10.080Z,13.10
2018-07-22T04:36:38.295Z,13.03
2018-07-22T04:39:08.125Z,12.70
2018-07-22T04:41:36.359Z,13.40
2018-07-22T04:44:04.613Z,12.67
2018-07-22T04:46:32.836Z,12.50
2018-07-22T04:49:01.084Z,12.20
2018-07-22T04:51:29.300Z,13.13
2018-07-22T04:53:57.543Z,13.17
2018-07-22T04:56:25.778Z,12.77
2018-07-22T04:58:54.070Z,12.17
2018-07-22T05:01:22.296Z,13.87
2018-07-22T05:03:50.548Z,12.30
2018-07-22T05:06:18.765Z,12.23
2018-07-22T05:08:47.007Z,11.80
2018-07-22T05:11:15.231Z,11.53
2018-07-22T05:13:43.475Z,12.97
2018-07-22T05:16:11.706Z,12.23
2018-07-22T05:18:39.963Z,12.13
2018-07-22T05:21:08.197Z,10.90
2018-07-22T05:23:36.439Z,12.03
2018-07-22T05:26:04.888Z,11.87
2018-07-22T05:28:33.127Z,11.77
2018-07-22T05:31:01.357Z,11.47
2018-07-22T05:33:29.595Z,10.80
2018-07-22T05:35:57.838Z,11.77
2018-07-22T05:38:26.088Z,10.77
2018-07-22T05:40:54.350Z,10.70
2018-07-22T05:43:22.580Z,11.73
2018-07-22T05:45:50.841Z,10.77
2018-07-22T05:48:19.083Z,10.80
2018-07-22T05:50:47.315Z,11.00
2018-07-22T05:53:15.541Z,12.37
2018-07-22T05:55:43.780Z,11.90
2018-07-22T05:58:11.996Z,11.60
2018-07-22T06:00:40.245Z,12.00
2018-07-22T06:03:08.493Z,10.97
2018-07-22T06:05:36.751Z,9.67
2018-07-22T06:08:05.036Z,10.47
2018-07-22T06:10:33.278Z,10.77
2018-07-22T06:13:01.486Z,9.33
2018-07-22T06:15:29.723Z,10.70
2018-07-22T06:17:57.955Z,9.70
2018-07-22T06:20:26.199Z,9.37
2018-07-22T06:22:54.415Z,9.43
2018-07-22T06:25:22.652Z,9.27
2018-07-22T06:27:50.905Z,9.50
2018-07-22T06:30:19.145Z,8.70
2018-07-22T06:32:47.354Z,8.67
2018-07-22T06:35:15.670Z,8.77
2018-07-22T06:37:43.832Z,7.47
2018-07-22T06:40:12.081Z,7.70
2018-07-22T06:42:40.304Z,7.87
2018-07-22T06:45:08.547Z,7.70
2018-07-22T06:47:36.774Z,8.03
2018-07-22T06:50:05.255Z,7.13
2018-07-22T06:52:33.476Z,7.17
2018-07-22T06:55:01.714Z,7.83
2018-07-22T06:57:29.936Z,7.27
2018-07-22T06:59:58.188Z,7.33
2018-07-22T07:02:26.429Z,7.00
2018-07-22T07:04:54.689Z,7.93
2018-07-22T07:07:22.911Z,7.60
2018-07-22T07:09:51.144Z,8.73
2018-07-22T07:12:19.363Z,7.47
2018-07-22T07:14:47.599Z,7.40
2018-07-22T07:17:15.839Z,7.70
2018-07-22T07:19:44.063Z,7.03
2018-07-22T07:22:12.280Z,6.90
2018-07-22T07:24:40.516Z,6.63
2018-07-22T07:27:08.908Z,6.90
2018-07-22T07:29:37.143Z,6.40
2018-07-22T07:32:05.484Z,6.60
2018-07-22T07:34:33.727Z,5.77
2018-07-22T07:37:01.996Z,7.17
2018-07-22T07:39:30.211Z,7.23
2018-07-22T07:41:58.440Z,6.57
2018-07-22T07:44:26.644Z,6.30
2018-07-22T07:46:54.876Z,6.90
2018-07-22T07:49:23.097Z,6.60
2018-07-22T07:51:51.392Z,6.73
2018-07-22T07:54:19.584Z,6.77
2018-07-22T07:56:47.824Z,7.20
2018-07-22T07:59:16.040Z,6.90
2018-07-22T08:01:44.275Z,6.07
2018-07-22T08:04:12.500Z,7.00
2018-07-22T08:06:40.865Z,6.67
2018-07-22T08:09:10.197Z,6.90
2018-07-22T08:11:38.462Z,7.10
2018-07-22T08:14:06.692Z,6.90
2018-07-22T08:16:35.583Z,6.27
2018-07-22T08:19:03.845Z,6.03
2018-07-22T08:21:32.088Z,6.77
2018-07-22T08:24:00.320Z,6.87
2018-07-22T08:26:28.563Z,6.40
2018-07-22T08:29:32.226Z,6.87
2018-07-22T08:32:01.113Z,6.23
2018-07-22T08:34:29.355Z,6.83
2018-07-22T08:36:57.592Z,7.40
2018-07-22T08:39:27.920Z,6.77
2018-07-22T08:41:56.535Z,6.97
2018-07-22T08:44:24.762Z,6.27
2018-07-22T08:46:52.996Z,7.13
2018-07-22T08:49:21.216Z,6.63
2018-07-22T08:51:49.452Z,7.53
2018-07-22T08:54:17.675Z,6.73
2018-07-22T08:56:45.947Z,6.93
2018-07-22T08:59:14.156Z,6.60
2018-07-22T09:01:42.391Z,6.83
2018-07-22T09:04:10.603Z,7.43
2018-07-22T09:06:38.837Z,6.57
2018-07-22T09:09:08.045Z,6.60
2018-07-22T09:11:36.403Z,6.77
2018-07-22T09:14:04.976Z,6.33
2018-07-22T09:16:33.215Z,6.97
2018-07-22T09:19:01.606Z,7.00
2018-07-22T09:21:29.853Z,6.57
2018-07-22T09:23:58.088Z,6.33
2018-07-22T09:26:26.321Z,5.97
2018-07-22T09:28:54.560Z,6.77
2018-07-22T09:31:22.811Z,6.10
2018-07-22T09:33:51.048Z,6.50
2018-07-22T09:36:19.331Z,6.80
2018-07-22T09:38:47.523Z,6.50
2018-07-22T09:41:15.768Z,5.87
2018-07-22T09:43:43.984Z,5.90
2018-07-22T09:46:12.223Z,5.40
2018-07-22T09:48:40.436Z,5.67
2018-07-22T09:51:08.700Z,5.77
2018-07-22T09:53:36.964Z,6.17
2018-07-22T09:56:05.251Z,5.57
2018-07-22T09:58:33.480Z,6.23
2018-07-22T10:01:02.152Z,6.07
2018-07-22T10:03:31.180Z,5.73
2018-07-22T10:05:59.410Z,5.93
2018-07-22T10:08:27.788Z,5.03
2018-07-22T10:10:56.044Z,4.73
2018-07-22T10:13:24.275Z,5.23
2018-07-22T10:15:52.500Z,5.53
2018-07-22T10:18:20.769Z,5.47
2018-07-22T10:20:48.980Z,5.30
2018-07-22T10:23:17.278Z,5.37
2018-07-22T10:25:45.468Z,5.50
2018-07-22T10:28:13.700Z,5.60
2018-07-22T10:30:41.923Z,5.23
2018-07-22T10:33:10.163Z,5.17
2018-07-22T10:35:38.376Z,4.87
2018-07-22T10:38:06.647Z,5.10
2018-07-22T10:40:34.863Z,5.70
2018-07-22T10:43:03.104Z,5.20
2018-07-22T10:45:31.332Z,4.80
2018-07-22T10:47:59.576Z,5.53
2018-07-22T10:50:27.800Z,5.30
2018-07-22T10:52:56.028Z,5.00
2018-07-22T10:55:24.249Z,5.20
2018-07-22T10:57:52.492Z,4.70
2018-07-22T11:00:20.716Z,5.27
2018-07-22T11:02:48.956Z,5.27
2018-07-22T11:05:17.172Z,5.43
2018-07-22T11:07:45.412Z,5.20
2018-07-22T11:10:13.636Z,5.03
2018-07-22T11:12:41.867Z,4.57
2018-07-22T11:15:10.096Z,5.20
2018-07-22T11:17:38.352Z,5.30
2018-07-22T11:20:06.592Z,5.27
2018-07-22T11:22:34.833Z,4.87
2018-07-22T11:25:03.044Z,5.60
2018-07-22T11:27:31.289Z,5.70
2018-07-22T11:29:59.519Z,5.30
2018-07-22T11:32:27.796Z,5.30
2018-07-22T11:34:56.008Z,5.70
2018-07-22T11:37:24.251Z,5.40
2018-07-22T11:39:52.472Z,5.73
2018-07-22T11:42:20.713Z,5.43
2018-07-22T11:44:48.923Z,4.93
2018-07-22T11:47:17.171Z,4.90
2018-07-22T11:49:45.406Z,4.87
2018-07-22T11:52:13.628Z,5.37
2018-07-22T11:54:41.864Z,5.30
2018-07-22T11:57:10.221Z,5.23
2018-07-22T11:59:38.467Z,5.90
2018-07-22T12:02:06.696Z,5.20
2018-07-22T12:04:34.932Z,5.27
2018-07-22T12:07:03.151Z,5.20
2018-07-22T12:09:31.394Z,5.47
2018-07-22T12:11:59.616Z,4.97
2018-07-22T12:14:27.857Z,5.60
2018-07-22T12:16:56.083Z,5.40
2018-07-22T12:19:24.330Z,5.80
2018-07-22T12:21:52.545Z,6.20
2018-07-22T12:24:20.780Z,5.27
2018-07-22T12:26:49.000Z,5.90
2018-07-22T12:29:17.220Z,4.97
2018-07-22T12:31:45.432Z,5.20
2018-07-22T12:34:20.176Z,4.93
2018-07-22T12:36:48.339Z,6.73
2018-07-22T12:39:16.577Z,5.50
2018-07-22T12:41:44.795Z,5.67
2018-07-22T12:44:13.033Z,5.50
2018-07-22T12:46:41.251Z,6.20
2018-07-22T12:49:09.482Z,5.07
2018-07-22T12:51:37.695Z,5.20
2018-07-22T12:54:05.984Z,5.03
2018-07-22T12:56:34.203Z,5.90
2018-07-22T12:59:02.441Z,5.63
2018-07-22T13:01:30.657Z,5.10
2018-07-22T13:03:58.895Z,5.73
2018-07-22T13:06:27.120Z,6.53
2018-07-22T13:08:55.512Z,5.80
2018-07-22T13:11:23.720Z,5.43
2018-07-22T13:13:51.961Z,4.93
2018-07-22T13:16:20.176Z,5.23
2018-07-22T13:18:48.508Z,5.23
2018-07-22T13:21:16.712Z,5.40
2018-07-22T13:23:44.941Z,5.50
2018-07-22T13:26:13.152Z,5.20
2018-07-22T13:28:41.562Z,4.57
2018-07-22T13:31:09.795Z,5.40
2018-07-22T13:33:38.023Z,5.17
2018-07-22T13:36:06.247Z,6.07
2018-07-22T13:38:34.658Z,5.70
2018-07-22T13:41:02.823Z,5.43
2018-07-22T13:43:31.064Z,5.17
2018-07-22T13:45:59.287Z,5.30
2018-07-22T13:48:27.515Z,4.87
2018-07-22T13:50:55.762Z,5.33
2018-07-22T13:53:23.988Z,5.67
2018-07-22T13:55:52.252Z,5.33
2018-07-22T13:58:20.471Z,6.23
2018-07-22T14:00:48.709Z,5.40
2018-07-22T14:03:16.999Z,5.67
2018-07-22T14:05:45.234Z,6.03
2018-07-22T14:08:13.443Z,6.00
2018-07-22T14:10:41.680Z,5.80
2018-07-22T14:13:09.901Z,5.63
2018-07-22T14:15:38.178Z,5.53
2018-07-22T14:18:06.533Z,5.63
2018-07-22T14:20:34.767Z,5.43
2018-07-22T14:23:02.996Z,6.50
2018-07-22T14:25:31.251Z,6.00
2018-07-22T14:27:59.526Z,5.90
2018-07-22T14:30:27.732Z,5.80
2018-07-22T14:32:55.956Z,5.77
2018-07-22T14:35:24.187Z,5.93
2018-07-22T14:37:52.406Z,5.77
2018-07-22T14:40:20.653Z,5.63
2018-07-22T14:42:49.260Z,6.23
2018-07-22T14:45:17.489Z,5.27
2018-07-22T14:47:45.747Z,6.03
2018-07-22T14:50:13.992Z,5.50
2018-07-22T14:52:42.276Z,5.50
2018-07-22T14:55:10.564Z,5.93
2018-07-22T14:57:38.797Z,5.47
2018-07-22T15:00:07.555Z,5.60
2018-07-22T15:02:36.575Z,4.83
2018-07-22T15:05:05.143Z,5.20
2018-07-22T15:07:33.360Z,5.83
2018-07-22T15:10:01.608Z,5.40
2018-07-22T15:12:29.839Z,5.93
2018-07-22T15:14:58.120Z,5.30
2018-07-22T15:17:26.355Z,5.70
2018-07-22T15:19:54.585Z,5.27
2018-07-22T15:22:22.807Z,5.97
2018-07-22T15:24:51.056Z,5.50
2018-07-22T15:27:19.273Z,5.30
2018-07-22T15:29:47.513Z,5.90
2018-07-22T15:32:15.830Z,5.50
2018-07-22T15:34:44.080Z,5.60
2018-07-22T15:37:12.295Z,5.00
2018-07-22T15:39:40.525Z,5.20
2018-07-22T15:42:08.788Z,5.30
2018-07-22T15:44:37.011Z,5.40
2018-07-22T15:47:05.256Z,5.63
2018-07-22T15:49:33.501Z,6.20
2018-07-22T15:52:01.735Z,5.40
2018-07-22T15:54:29.959Z,6.03
2018-07-22T15:56:58.205Z,5.90
2018-07-22T15:59:26.421Z,5.47
2018-07-22T16:01:54.666Z,5.40
2018-07-22T16:04:22.892Z,6.00
2018-07-22T16:06:51.165Z,5.87
2018-07-22T16:09:19.388Z,5.50
2018-07-22T16:11:47.629Z,5.80
2018-07-22T16:14:15.858Z,5.60
2018-07-22T16:16:44.107Z,6.00
2018-07-22T16:19:12.340Z,5.80
2018-07-22T16:21:40.567Z,5.83
2018-07-22T16:24:08.790Z,6.03
2018-07-22T16:26:37.147Z,6.10
2018-07-22T16:29:05.359Z,6.47
2018-07-22T16:31:33.600Z,5.40
2018-07-22T16:34:01.833Z,5.83
2018-07-22T16:36:30.097Z,6.17
2018-07-22T16:38:58.324Z,5.70
2018-07-22T16:41:26.560Z,5.70
2018-07-22T16:43:54.779Z,5.63
2018-07-22T16:46:23.028Z,5.57
2018-07-22T16:48:51.245Z,5.87
2018-07-22T16:51:19.496Z,5.93
2018-07-22T16:53:47.755Z,5.80
2018-07-22T16:56:15.993Z,6.37
2018-07-22T16:58:44.204Z,5.67
2018-07-22T17:01:12.442Z,6.23
2018-07-22T17:03:40.672Z,5.93
2018-07-22T17:06:08.916Z,6.20
2018-07-22T17:08:37.136Z,5.67
2018-07-22T17:11:05.373Z,6.03
2018-07-22T17:13:33.588Z,6.10
2018-07-22T17:16:01.828Z,5.90
2018-07-22T17:18:30.068Z,5.57
2018-07-22T17:20:58.299Z,6.83
2018-07-22T17:23:26.515Z,6.50
2018-07-22T17:25:54.756Z,6.20
2018-07-22T17:28:22.964Z,5.70
2018-07-22T17:30:51.204Z,5.67
2018-07-22T17:33:19.439Z,5.53
2018-07-22T17:35:47.700Z,5.40
2018-07-22T17:38:15.916Z,6.40
2018-07-22T17:40:44.127Z,5.33
2018-07-22T17:43:12.356Z,5.67
2018-07-22T17:45:40.569Z,5.90
2018-07-22T17:48:15.424Z,4.97
2018-07-22T17:50:43.643Z,5.43
2018-07-22T17:53:11.871Z,5.50
2018-07-22T17:55:40.121Z,5.53
2018-07-22T17:58:08.376Z,5.67
2018-07-22T18:00:36.591Z,5.90
2018-07-22T18:03:20.195Z,5.50
2018-07-22T18:05:48.556Z,5.27
2018-07-22T18:08:16.895Z,5.77
2018-07-22T18:10:45.119Z,6.50
2018-07-22T18:13:13.357Z,6.30
2018-07-22T18:15:41.656Z,5.60
2018-07-22T18:18:10.136Z,6.10
2018-07-22T18:20:38.388Z,5.40
2018-07-22T18:23:06.675Z,5.57
2018-07-22T18:25:34.891Z,5.67
2018-07-22T18:28:03.120Z,6.13
2018-07-22T18:30:31.509Z,5.53
2018-07-22T18:32:59.760Z,5.57
2018-07-22T18:35:27.967Z,6.43
2018-07-22T18:37:56.204Z,6.63
2018-07-22T18:40:25.227Z,6.30
2018-07-22T18:42:53.837Z,6.57
2018-07-22T18:45:22.100Z,7.57
2018-07-22T18:47:50.347Z,6.10
2018-07-22T18:50:18.551Z,6.43
2018-07-22T18:52:47.034Z,6.37
2018-07-22T18:55:15.250Z,6.43
2018-07-22T18:57:43.483Z,6.80
2018-07-22T19:00:11.695Z,6.30
2018-07-22T19:02:39.968Z,6.40
2018-07-22T19:05:08.416Z,6.63
2018-07-22T19:07:36.763Z,6.70
2018-07-22T19:10:05.337Z,6.33
2018-07-22T19:12:33.577Z,6.80
2018-07-22T19:15:01.788Z,7.27
2018-07-22T19:17:30.045Z,6.63
2018-07-22T19:19:58.264Z,6.43
2018-07-22T19:22:26.532Z,6.33
2018-07-22T19:24:54.752Z,6.30
2018-07-22T19:27:22.988Z,6.57
2018-07-22T19:29:51.209Z,6.40
2018-07-22T19:32:19.443Z,7.03
2018-07-22T19:34:47.660Z,6.87
2018-07-22T19:37:15.896Z,6.90
2018-07-22T19:39:44.121Z,6.97
2018-07-22T19:42:12.360Z,6.93
2018-07-22T19:44:40.592Z,7.40
2018-07-22T19:47:08.803Z,7.20
2018-07-22T19:49:37.040Z,6.97
2018-07-22T19:52:05.260Z,7.27
2018-07-22T19:54:33.489Z,7.07
2018-07-22T19:57:01.705Z,7.50
2018-07-22T19:59:29.940Z,6.70
2018-07-22T20:01:58.148Z,7.60
2018-07-22T20:04:26.380Z,6.60
2018-07-22T20:06:54.603Z,7.07
